Time;durP1;ratioP1;P1;durP2;ratioP2;P2;SDS_P1;SDS_P2;PMS_P1;PMS_P2;Temp;Humidity;BMP_temperature;BMP_pressure;BME280_temperature;BME280_humidity;BME280_pressure;Samples;Min_cycle;Max_cycle;Signal;HPM_P1;HPM_P2
2024/03/01 00:01:48;;;;;;;2.13;1.40;;;15.90;59.70;;;;;;5132544;27;20194;-63
2024/03/01 00:04:13;;;;;;;1.73;1.63;;;15.90;59.80;;;;;;5132783;27;20175;-63
2024/03/01 00:06:39;;;;;;;2.28;1.52;;;15.90;59.70;;;;;;5132936;27;20183;-63
2024/03/01 00:09:04;;;;;;;2.00;1.50;;;15.90;59.70;;;;;;5132570;28;20187;-63
2024/03/01 00:11:31;;;;;;;1.88;1.52;;;15.90;59.70;;;;;;5132729;28;20212;-63
2024/03/01 00:13:57;;;;;;;1.77;1.67;;;15.90;59.60;;;;;;5132869;27;20250;-62
2024/03/01 00:16:22;;;;;;;1.75;1.65;;;15.80;59.60;;;;;;5131902;28;20639;-63
2024/03/01 00:18:48;;;;;;;1.65;1.55;;;15.80;59.70;;;;;;5132914;27;20176;-63
2024/03/01 00:21:16;;;;;;;1.40;1.30;;;15.90;59.70;;;;;;5133332;27;20297;-63
2024/03/01 00:23:42;;;;;;;1.70;1.60;;;15.80;59.70;;;;;;5137396;27;20175;-63
2024/03/01 00:26:08;;;;;;;1.58;1.48;;;15.80;59.60;;;;;;5136994;27;20168;-63
2024/03/01 00:28:37;;;;;;;1.58;1.48;;;15.90;59.70;;;;;;5136577;27;20175;-62
2024/03/01 00:31:03;;;;;;;1.90;1.80;;;15.80;59.60;;;;;;5137001;27;20284;-62
2024/03/01 00:33:28;;;;;;;1.70;1.60;;;15.80;59.70;;;;;;5136698;27;20694;-62
2024/03/01 00:35:54;;;;;;;1.55;1.45;;;15.80;59.60;;;;;;5136238;27;20208;-63
2024/03/01 00:38:20;;;;;;;1.50;1.40;;;15.80;59.70;;;;;;5136478;27;20172;-62
2024/03/01 00:40:45;;;;;;;1.70;1.60;;;15.80;59.60;;;;;;5136972;27;20176;-63
2024/03/01 00:43:11;;;;;;;1.60;1.50;;;15.70;59.50;;;;;;5135894;27;20164;-62
2024/03/01 00:45:36;;;;;;;1.83;1.73;;;15.70;59.50;;;;;;5136791;27;20180;-62
2024/03/01 00:48:10;;;;;;;2.35;1.55;;;15.80;59.60;;;;;;5136756;27;20259;-62
2024/03/01 00:50:35;;;;;;;1.70;1.52;;;15.80;59.60;;;;;;5135820;27;20527;-62
2024/03/01 00:53:02;;;;;;;1.48;1.38;;;15.70;59.60;;;;;;5136814;27;20179;-63
2024/03/01 00:55:28;;;;;;;1.70;1.60;;;15.70;59.60;;;;;;5136487;27;20632;-63
2024/03/01 00:57:53;;;;;;;2.35;1.75;;;15.70;59.60;;;;;;5135483;27;20750;-63
2024/03/01 01:00:19;;;;;;;1.67;1.50;;;15.70;59.60;;;;;;5136191;27;20259;-63
2024/03/01 01:02:44;;;;;;;1.83;1.73;;;15.70;59.60;;;;;;5136303;27;20696;-63
2024/03/01 01:05:10;;;;;;;1.70;1.60;;;15.70;59.50;;;;;;5135181;27;20234;-63
2024/03/01 01:07:36;;;;;;;1.90;1.80;;;15.70;59.60;;;;;;5136261;27;20647;-63
2024/03/01 01:10:04;;;;;;;2.65;2.13;;;15.70;59.60;;;;;;5136356;27;20176;-62
2024/03/01 01:12:30;;;;;;;1.60;1.38;;;15.70;59.60;;;;;;5135182;27;20220;-63
2024/03/01 01:14:55;;;;;;;2.17;1.73;;;15.70;59.60;;;;;;5136279;27;20172;-63
2024/03/01 01:17:21;;;;;;;1.58;1.48;;;15.70;59.60;;;;;;5135756;27;20180;-62
2024/03/01 01:19:46;;;;;;;2.17;1.98;;;15.70;59.60;;;;;;5135336;27;20172;-63
2024/03/01 01:22:12;;;;;;;1.80;1.70;;;15.70;59.60;;;;;;5135663;27;20214;-63
2024/03/01 01:24:37;;;;;;;2.00;1.80;;;15.70;59.60;;;;;;5135446;27;20188;-62
2024/03/01 01:27:03;;;;;;;1.90;1.80;;;15.70;59.40;;;;;;5135913;27;20526;-62
2024/03/01 01:29:29;;;;;;;1.75;1.65;;;15.60;59.40;;;;;;5135662;27;20229;-63
2024/03/01 01:31:54;;;;;;;1.80;1.70;;;15.60;59.40;;;;;;5135050;27;20200;-62
2024/03/01 01:34:20;;;;;;;1.70;1.60;;;15.60;59.50;;;;;;5134460;27;20177;-62
2024/03/01 01:36:46;;;;;;;1.80;1.63;;;15.60;59.50;;;;;;5135904;27;20695;-63
2024/03/01 01:39:11;;;;;;;1.48;1.38;;;15.60;59.40;;;;;;5134823;27;20516;-63
2024/03/01 01:41:37;;;;;;;1.80;1.60;;;15.60;59.40;;;;;;5135800;27;20197;-63
2024/03/01 01:44:03;;;;;;;1.90;1.80;;;15.60;59.40;;;;;;5135526;27;20176;-63
2024/03/01 01:46:29;;;;;;;2.03;1.83;;;15.60;59.40;;;;;;5134470;27;20221;-62
2024/03/01 01:48:54;;;;;;;1.70;1.60;;;15.60;59.40;;;;;;5135413;27;20165;-62
2024/03/01 01:51:20;;;;;;;2.05;1.90;;;15.60;59.40;;;;;;5135005;27;20255;-63
2024/03/01 01:53:45;;;;;;;1.80;1.70;;;15.60;59.50;;;;;;5135190;27;20171;-62
2024/03/01 01:56:12;;;;;;;2.08;1.88;;;15.60;59.40;;;;;;5135083;27;20176;-63
2024/03/01 01:58:37;;;;;;;1.80;1.70;;;15.60;59.40;;;;;;5133878;27;20224;-63
2024/03/01 02:01:07;;;;;;;1.67;1.58;;;15.60;59.40;;;;;;5133216;27;20187;-62
2024/03/01 02:03:38;;;;;;;1.92;1.83;;;15.50;59.30;;;;;;5135046;27;20675;-63
2024/03/01 02:06:09;;;;;;;1.92;1.80;;;15.50;59.30;;;;;;5135236;27;20188;-62
2024/03/01 02:08:35;;;;;;;2.30;1.77;;;15.50;59.30;;;;;;5134360;27;20172;-63
2024/03/01 02:11:02;;;;;;;1.80;1.70;;;15.50;59.30;;;;;;5134985;27;20257;-62
2024/03/01 02:13:28;;;;;;;2.00;1.80;;;15.60;59.40;;;;;;5134783;27;20297;-63
2024/03/01 02:15:53;;;;;;;2.45;1.80;;;15.50;59.30;;;;;;5134109;27;20619;-62
2024/03/01 02:18:19;;;;;;;1.98;1.88;;;15.50;59.40;;;;;;5134874;27;20183;-63
2024/03/01 02:20:56;;;;;;;1.88;1.75;;;15.60;59.30;;;;;;5134967;27;20172;-63
2024/03/01 02:23:22;;;;;;;2.05;1.85;;;15.50;59.30;;;;;;5134672;27;20237;-63
2024/03/01 02:25:47;;;;;;;2.20;2.00;;;15.50;59.30;;;;;;5134725;27;20176;-63
2024/03/01 02:28:13;;;;;;;2.00;1.90;;;15.50;59.30;;;;;;5133740;27;20168;-62
2024/03/01 02:30:39;;;;;;;1.85;1.75;;;15.50;59.30;;;;;;5134628;27;20608;-62
2024/03/01 02:33:04;;;;;;;2.03;1.90;;;15.50;59.30;;;;;;5134556;27;20204;-62
2024/03/01 02:35:30;;;;;;;2.20;2.00;;;15.50;59.30;;;;;;5133765;27;20304;-63
2024/03/01 02:37:55;;;;;;;2.15;1.95;;;15.50;59.40;;;;;;5134629;27;20259;-63
2024/03/01 02:40:21;;;;;;;1.88;1.77;;;15.50;59.30;;;;;;5134190;27;20195;-62
2024/03/01 02:42:46;;;;;;;2.38;2.17;;;15.50;59.40;;;;;;5133719;27;20617;-63
2024/03/01 02:45:13;;;;;;;2.55;2.15;;;15.50;59.40;;;;;;5133930;27;20665;-62
2024/03/01 02:47:38;;;;;;;2.20;2.00;;;15.40;59.30;;;;;;5134302;27;20663;-62
2024/03/01 02:50:08;;;;;;;2.45;2.25;;;15.40;59.30;;;;;;5133551;27;20176;-62
2024/03/01 02:52:34;;;;;;;2.22;2.00;;;15.50;59.30;;;;;;5134240;27;20213;-62
2024/03/01 02:55:03;;;;;;;2.30;2.10;;;15.40;59.30;;;;;;5134276;27;20211;-63
2024/03/01 02:57:29;;;;;;;2.28;2.00;;;15.40;59.20;;;;;;5132994;27;20228;-62
2024/03/01 02:59:54;;;;;;;2.60;2.40;;;15.40;59.20;;;;;;5134348;27;20213;-63
2024/03/01 03:02:20;;;;;;;2.40;2.20;;;15.40;59.20;;;;;;5134014;27;20696;-63
2024/03/01 03:04:45;;;;;;;2.30;2.10;;;15.50;59.30;;;;;;5133536;27;20580;-62
2024/03/01 03:07:15;;;;;;;2.35;2.15;;;15.40;59.20;;;;;;5133812;27;20579;-63
2024/03/01 03:09:44;;;;;;;2.45;2.25;;;15.40;59.20;;;;;;5134128;27;20188;-62
2024/03/01 03:12:10;;;;;;;2.22;2.10;;;15.40;59.20;;;;;;5132715;27;20223;-63
2024/03/01 03:14:36;;;;;;;2.50;2.30;;;15.40;59.20;;;;;;5134056;27;20173;-62
2024/03/01 03:17:06;;;;;;;2.40;2.20;;;15.40;59.30;;;;;;5133760;27;20187;-62
2024/03/01 03:19:32;;;;;;;2.47;2.28;;;15.40;59.30;;;;;;5133333;27;20650;-62
2024/03/01 03:21:58;;;;;;;2.63;2.42;;;15.40;59.30;;;;;;5133820;27;20609;-63
2024/03/01 03:24:23;;;;;;;2.40;2.25;;;15.40;59.30;;;;;;5132522;27;20251;-62
2024/03/01 03:26:49;;;;;;;2.30;2.10;;;15.40;59.30;;;;;;5133510;27;20267;-62
2024/03/01 03:29:14;;;;;;;3.00;2.60;;;15.40;59.40;;;;;;5133227;27;20263;-62
2024/03/01 03:31:43;;;;;;;2.47;2.28;;;15.40;59.30;;;;;;5132668;27;20212;-62
2024/03/01 03:34:09;;;;;;;2.53;2.33;;;15.30;59.30;;;;;;5133217;27;20190;-62
2024/03/01 03:36:34;;;;;;;2.45;2.25;;;15.40;59.40;;;;;;5133414;27;20177;-63
2024/03/01 03:39:00;;;;;;;2.67;2.47;;;15.40;59.40;;;;;;5132618;27;20200;-62
2024/03/01 03:41:26;;;;;;;2.30;2.10;;;15.40;59.40;;;;;;5133231;27;20264;-63
2024/03/01 03:43:52;;;;;;;2.65;2.45;;;15.30;59.40;;;;;;5133271;27;20230;-62
2024/03/01 03:46:17;;;;;;;2.15;1.98;;;15.30;59.50;;;;;;5132421;27;20185;-62
2024/03/01 03:48:43;;;;;;;2.85;2.53;;;15.30;59.50;;;;;;5132889;27;20203;-62
2024/03/01 03:51:08;;;;;;;2.53;2.28;;;15.30;59.50;;;;;;5132919;27;20196;-62
2024/03/01 03:53:34;;;;;;;2.45;2.25;;;15.30;59.40;;;;;;5132521;27;20172;-62
2024/03/01 03:56:00;;;;;;;2.63;2.30;;;15.30;59.40;;;;;;5132943;27;20635;-63
2024/03/01 03:58:25;;;;;;;2.75;2.55;;;15.30;59.40;;;;;;5132618;27;20274;-63
2024/03/01 04:00:51;;;;;;;2.75;2.55;;;15.30;59.40;;;;;;5132570;27;20261;-63
2024/03/01 04:03:16;;;;;;;2.63;2.42;;;15.30;59.40;;;;;;5132849;27;20652;-62
2024/03/01 04:05:42;;;;;;;2.50;2.30;;;15.30;59.40;;;;;;5133105;27;20633;-63
2024/03/01 04:08:07;;;;;;;2.72;2.53;;;15.30;59.40;;;;;;5132296;27;20168;-62
2024/03/01 04:10:33;;;;;;;3.05;2.83;;;15.30;59.40;;;;;;5132897;28;20171;-62
2024/03/01 04:13:07;;;;;;;2.55;2.35;;;15.30;59.40;;;;;;5133315;27;20251;-63
2024/03/01 04:15:33;;;;;;;3.00;2.80;;;15.30;60.00;;;;;;5132411;27;20626;-63
2024/03/01 04:17:59;;;;;;;3.97;2.58;;;15.30;59.40;;;;;;5133021;28;20190;-63
2024/03/01 04:20:24;;;;;;;2.67;2.47;;;15.30;59.40;;;;;;5132098;27;20180;-63
2024/03/01 04:22:50;;;;;;;2.72;2.53;;;15.30;59.40;;;;;;5132975;27;20183;-62
2024/03/01 04:25:16;;;;;;;3.00;2.80;;;15.30;59.40;;;;;;5132892;28;20175;-62
2024/03/01 04:27:42;;;;;;;2.90;2.70;;;15.20;59.40;;;;;;5132592;27;20180;-62
2024/03/01 04:30:10;;;;;;;3.10;2.83;;;15.20;59.40;;;;;;5133033;28;20631;-62
2024/03/01 04:32:36;;;;;;;2.50;2.30;;;15.20;59.30;;;;;;5132774;27;20212;-62
2024/03/01 04:35:02;;;;;;;2.55;2.35;;;15.20;59.40;;;;;;5132061;27;20171;-63
2024/03/01 04:37:27;;;;;;;2.33;2.15;;;15.20;59.30;;;;;;5132280;27;20257;-62
2024/03/01 04:39:53;;;;;;;2.75;2.55;;;15.20;59.30;;;;;;5132737;28;20181;-63
2024/03/01 04:42:18;;;;;;;2.40;2.20;;;15.20;59.30;;;;;;5131635;28;20176;-63
2024/03/01 04:44:44;;;;;;;2.70;2.50;;;15.20;59.30;;;;;;5132839;28;20176;-63
2024/03/01 04:47:10;;;;;;;2.38;2.17;;;15.20;59.30;;;;;;5132456;27;20172;-62
2024/03/01 04:49:36;;;;;;;2.63;2.42;;;15.20;59.30;;;;;;5131970;28;20176;-62
2024/03/01 04:52:01;;;;;;;3.08;2.70;;;15.20;59.30;;;;;;5132532;28;20211;-63
2024/03/01 04:54:27;;;;;;;2.60;2.40;;;15.10;59.30;;;;;;5132557;27;20531;-63
2024/03/01 04:56:53;;;;;;;3.42;3.13;;;15.10;59.30;;;;;;5131919;28;20236;-63
2024/03/01 04:59:18;;;;;;;2.67;2.47;;;15.10;59.30;;;;;;5132283;28;20168;-63
2024/03/01 05:01:44;;;;;;;2.83;2.63;;;15.20;59.40;;;;;;5132497;28;20557;-63
2024/03/01 05:04:09;;;;;;;2.50;2.30;;;15.10;59.40;;;;;;5131475;27;20168;-63
2024/03/01 05:06:36;;;;;;;2.53;2.33;;;15.20;59.40;;;;;;5132492;27;20172;-63
2024/03/01 05:09:03;;;;;;;2.28;2.08;;;15.10;59.40;;;;;;5134932;27;20187;-63
2024/03/01 05:11:33;;;;;;;2.58;2.38;;;15.10;59.40;;;;;;5135434;27;20261;-63
2024/03/01 05:13:59;;;;;;;2.47;2.13;;;15.10;59.50;;;;;;5136422;27;20516;-63
2024/03/01 05:16:25;;;;;;;2.47;2.28;;;15.10;59.50;;;;;;5135908;27;20658;-63
2024/03/01 05:18:51;;;;;;;2.60;2.40;;;15.10;59.50;;;;;;5135548;27;20168;-63
2024/03/01 05:21:16;;;;;;;2.47;2.28;;;15.10;59.40;;;;;;5135761;27;20749;-63
2024/03/01 05:23:42;;;;;;;2.22;2.03;;;15.10;59.50;;;;;;5135631;27;20168;-63
2024/03/01 05:26:09;;;;;;;2.67;2.47;;;15.10;59.50;;;;;;5135763;27;20556;-63
2024/03/01 05:28:35;;;;;;;2.38;2.17;;;15.10;59.50;;;;;;5135871;27;20173;-63
2024/03/01 05:31:01;;;;;;;2.08;1.90;;;15.10;59.50;;;;;;5135096;27;20215;-63
2024/03/01 05:33:26;;;;;;;2.00;1.90;;;15.10;59.50;;;;;;5135576;27;20263;-63
2024/03/01 05:35:53;;;;;;;2.35;2.15;;;15.10;59.50;;;;;;5135671;27;20190;-63
2024/03/01 05:38:18;;;;;;;2.67;2.03;;;15.10;59.40;;;;;;5134762;27;20571;-64
2024/03/01 05:40:44;;;;;;;2.40;2.20;;;15.10;59.50;;;;;;5135851;27;20183;-63
2024/03/01 05:43:09;;;;;;;2.40;2.20;;;15.10;59.50;;;;;;5135543;27;20221;-63
2024/03/01 05:45:35;;;;;;;2.13;2.03;;;15.00;59.60;;;;;;5134968;27;20175;-62
2024/03/01 05:48:01;;;;;;;2.20;2.00;;;15.10;59.50;;;;;;5135599;27;20168;-62
2024/03/01 05:50:27;;;;;;;1.83;1.73;;;15.00;59.40;;;;;;5135101;27;20481;-62
2024/03/01 05:52:52;;;;;;;1.95;1.77;;;15.10;59.40;;;;;;5134962;27;20181;-63
2024/03/01 05:55:18;;;;;;;2.00;1.90;;;15.10;59.30;;;;;;5135222;27;20180;-63
2024/03/01 05:57:46;;;;;;;1.92;1.83;;;15.10;59.30;;;;;;5135185;27;20262;-63
2024/03/01 06:00:18;;;;;;;1.45;1.35;;;15.20;59.30;;;;;;5134421;27;20183;-63
2024/03/01 06:02:46;;;;;;;1.70;1.60;;;15.20;59.30;;;;;;5135352;27;20196;-63
2024/03/01 06:05:13;;;;;;;1.73;1.63;;;15.20;59.20;;;;;;5135192;27;20173;-63
2024/03/01 06:07:38;;;;;;;1.80;1.70;;;15.30;59.20;;;;;;5134451;27;20592;-63
2024/03/01 06:10:04;;;;;;;1.52;1.42;;;15.30;59.10;;;;;;5135321;27;20200;-63
2024/03/01 06:12:30;;;;;;;1.40;1.30;;;15.40;59.10;;;;;;5134759;27;20291;-63
2024/03/01 06:14:55;;;;;;;1.80;1.70;;;15.40;59.10;;;;;;5134429;27;20272;-63
2024/03/01 06:17:21;;;;;;;1.77;1.67;;;15.50;59.10;;;;;;5134684;27;20255;-64
2024/03/01 06:19:46;;;;;;;1.55;1.45;;;15.50;59.00;;;;;;5134642;27;20253;-64
2024/03/01 06:22:12;;;;;;;1.50;1.40;;;15.60;59.00;;;;;;5134113;27;20658;-63
2024/03/01 06:24:38;;;;;;;1.50;1.40;;;15.60;58.90;;;;;;5135030;27;20726;-63
2024/03/01 06:27:04;;;;;;;1.55;1.45;;;15.70;58.80;;;;;;5134252;27;20242;-62
2024/03/01 06:29:29;;;;;;;1.55;1.45;;;15.70;58.70;;;;;;5134608;27;20639;-63
2024/03/01 06:31:55;;;;;;;1.52;1.42;;;15.80;58.70;;;;;;5134534;27;20618;-62
2024/03/01 06:34:21;;;;;;;1.25;1.25;;;15.80;58.70;;;;;;5133953;27;20279;-63
2024/03/01 06:36:46;;;;;;;1.67;1.55;;;15.80;58.50;;;;;;5134714;27;20617;-63
2024/03/01 06:39:12;;;;;;;1.38;1.27;;;15.80;58.50;;;;;;5134269;27;20172;-63
2024/03/01 06:41:37;;;;;;;1.63;1.52;;;15.80;58.50;;;;;;5133756;27;20168;-64
2024/03/01 06:44:03;;;;;;;1.48;1.30;;;15.80;58.50;;;;;;5134524;27;20175;-63
2024/03/01 06:46:29;;;;;;;1.40;1.30;;;15.80;58.60;;;;;;5134098;27;20220;-63
2024/03/01 06:48:55;;;;;;;1.50;1.40;;;15.70;58.50;;;;;;5133665;27;20172;-62
2024/03/01 06:51:20;;;;;;;1.30;1.20;;;15.70;58.60;;;;;;5133936;27;20212;-62
2024/03/01 06:53:46;;;;;;;1.50;1.40;;;15.70;58.60;;;;;;5134266;27;20323;-63
2024/03/01 06:56:13;;;;;;;1.17;1.10;;;15.80;58.60;;;;;;5133406;27;20209;-63
2024/03/01 06:58:40;;;;;;;1.20;1.10;;;15.90;58.60;;;;;;5134058;27;20220;-64
2024/03/01 07:01:05;;;;;;;1.10;1.10;;;16.00;58.50;;;;;;5134092;27;20263;-63
2024/03/01 07:03:31;;;;;;;1.25;1.00;;;16.20;58.40;;;;;;5133329;27;20251;-63
2024/03/01 07:05:56;;;;;;;0.95;0.95;;;16.30;58.20;;;;;;5134199;27;20177;-63
2024/03/01 07:08:22;;;;;;;1.55;1.08;;;16.50;58.00;;;;;;5133783;27;20225;-63
2024/03/01 07:10:47;;;;;;;1.20;1.10;;;16.60;57.60;;;;;;5133227;27;20208;-63
2024/03/01 07:13:13;;;;;;;1.10;1.00;;;16.80;57.40;;;;;;5133607;27;20172;-63
2024/03/01 07:15:38;;;;;;;1.52;1.40;;;17.00;57.00;;;;;;5133771;27;20169;-63
2024/03/01 07:18:04;;;;;;;0.98;0.98;;;17.20;56.70;;;;;;5133325;27;20190;-63
2024/03/01 07:20:30;;;;;;;1.20;1.10;;;17.30;56.40;;;;;;5133648;27;20168;-63
2024/03/01 07:22:55;;;;;;;1.15;1.05;;;17.40;56.30;;;;;;5133867;27;20209;-63
2024/03/01 07:25:21;;;;;;;1.20;1.10;;;17.40;56.30;;;;;;5132792;27;20188;-63
2024/03/01 07:27:46;;;;;;;1.20;1.10;;;17.30;56.30;;;;;;5133696;27;20247;-63
2024/03/01 07:30:12;;;;;;;1.33;1.23;;;17.40;56.30;;;;;;5132876;27;20743;-63
2024/03/01 07:32:38;;;;;;;1.10;1.00;;;17.30;56.20;;;;;;5132541;27;20208;-62
2024/03/01 07:35:05;;;;;;;0.88;0.85;;;17.30;56.30;;;;;;5133787;27;20661;-63
2024/03/01 07:37:31;;;;;;;0.93;0.93;;;17.20;56.40;;;;;;5132507;27;20241;-63
2024/03/01 07:39:57;;;;;;;1.17;1.08;;;17.20;56.50;;;;;;5133596;27;20607;-63
2024/03/01 07:42:25;;;;;;;1.30;1.20;;;17.20;56.60;;;;;;5133066;27;20178;-63
2024/03/01 07:44:52;;;;;;;1.30;1.20;;;17.10;56.70;;;;;;5132580;27;20173;-62
2024/03/01 07:47:17;;;;;;;1.00;1.00;;;17.10;56.80;;;;;;5133294;27;20177;-62
2024/03/01 07:49:43;;;;;;;1.42;1.00;;;17.10;56.90;;;;;;5133497;27;20556;-63
2024/03/01 07:52:08;;;;;;;1.35;1.08;;;17.10;56.90;;;;;;5132196;27;20678;-62
2024/03/01 07:54:34;;;;;;;0.80;0.70;;;17.20;56.80;;;;;;5132763;27;20192;-63
2024/03/01 07:56:59;;;;;;;0.93;0.93;;;17.10;56.90;;;;;;5133079;27;20273;-63
2024/03/01 07:59:25;;;;;;;1.30;0.90;;;17.20;56.80;;;;;;5131940;27;20591;-63
2024/03/01 08:01:51;;;;;;;1.75;0.80;;;17.20;56.80;;;;;;5133313;27;20245;-63
2024/03/01 08:04:16;;;;;;;0.90;0.90;;;17.20;56.90;;;;;;5132890;27;20164;-63
2024/03/01 08:06:48;;;;;;;1.10;0.98;;;17.20;56.70;;;;;;5132480;27;20587;-63
2024/03/01 08:09:17;;;;;;;0.68;0.68;;;17.30;56.70;;;;;;5132732;27;20168;-63
2024/03/01 08:11:44;;;;;;;0.80;0.80;;;17.30;56.60;;;;;;5132922;27;20204;-63
2024/03/01 08:14:24;;;;;;;1.00;0.90;;;17.30;56.60;;;;;;5131980;27;20176;-63
2024/03/01 08:16:54;;;;;;;1.40;1.23;;;17.40;56.50;;;;;;5132975;28;20615;-63
2024/03/01 08:19:21;;;;;;;0.98;0.80;;;17.40;56.50;;;;;;5132534;27;20178;-63
2024/03/01 08:21:46;;;;;;;0.88;0.88;;;17.30;56.60;;;;;;5132248;27;20176;-64
2024/03/01 08:24:19;;;;;;;1.80;0.80;;;17.40;56.60;;;;;;5132595;28;20334;-64
2024/03/01 08:26:45;;;;;;;0.73;0.70;;;17.40;56.60;;;;;;5114674;28;20200;-62
2024/03/01 08:29:10;;;;;;;0.90;0.90;;;17.50;56.60;;;;;;5132665;28;20188;-61
2024/03/01 08:31:37;;;;;;;0.82;0.82;;;17.50;56.90;;;;;;5120179;27;20565;-61
2024/03/01 08:34:19;;;;;;;1.73;0.90;;;17.50;57.60;;;;;;5129566;27;20172;-61
2024/03/01 08:36:45;;;;;;;1.17;1.08;;;17.50;57.00;;;;;;5112182;28;20710;-62
2024/03/01 08:39:18;;;;;;;1.40;1.15;;;17.50;57.10;;;;;;5119836;28;20264;-61
2024/03/01 08:41:48;;;;;;;2.35;1.17;;;17.50;57.10;;;;;;5132272;27;20214;-62
2024/03/01 08:44:46;;;;;;;1.40;1.10;;;17.60;57.10;;;;;;5136830;27;20227;-61
2024/03/01 08:47:31;;;;;;;1.75;1.20;;;17.60;56.90;;;;;;5131778;27;20181;-60
2024/03/01 08:50:23;;;;;;;1.75;1.23;;;17.70;57.00;;;;;;5114896;28;20184;-61
2024/03/01 08:52:49;;;;;;;1.48;1.00;;;17.60;57.10;;;;;;5115980;28;20222;-61
2024/03/01 08:55:17;;;;;;;2.72;1.27;;;17.60;57.30;;;;;;5114944;28;20173;-61
2024/03/01 08:57:44;;;;;;;2.63;0.90;;;17.50;57.50;;;;;;5115811;28;20231;-61
2024/03/01 09:00:34;;;;;;;1.58;1.38;;;17.40;57.70;;;;;;5114688;28;20169;-62
2024/03/01 09:03:00;;;;;;;1.27;1.13;;;17.50;57.60;;;;;;5115145;28;20632;-61
2024/03/01 09:05:26;;;;;;;1.40;1.23;;;17.40;57.50;;;;;;5099137;28;20200;-61
2024/03/01 09:07:51;;;;;;;2.88;0.93;;;17.30;57.60;;;;;;5093979;28;20577;-61
2024/03/01 09:10:28;;;;;;;2.05;1.40;;;17.30;57.70;;;;;;5094214;28;20185;-62
2024/03/01 09:12:54;;;;;;;3.08;1.00;;;17.40;57.80;;;;;;5095609;28;20197;-62
2024/03/01 09:15:22;;;;;;;1.15;1.02;;;17.30;57.70;;;;;;5095161;28;20181;-61
2024/03/01 09:17:47;;;;;;;2.58;1.55;;;17.30;57.90;;;;;;5093361;28;20185;-62
2024/03/01 09:20:26;;;;;;;2.00;1.00;;;17.20;58.10;;;;;;5095008;28;20178;-62
2024/03/01 09:22:52;;;;;;;1.60;1.50;;;17.10;58.20;;;;;;5093022;28;20218;-62
2024/03/01 09:25:43;;;;;;;2.38;1.35;;;17.10;58.30;;;;;;5095058;28;20178;-62
2024/03/01 09:28:08;;;;;;;1.38;1.17;;;17.00;58.30;;;;;;5094738;28;20176;-62
2024/03/01 09:30:34;;;;;;;1.65;1.30;;;16.90;58.50;;;;;;5094299;28;20273;-62
2024/03/01 09:33:00;;;;;;;3.13;1.15;;;16.90;58.50;;;;;;5094856;28;20261;-61
2024/03/01 09:35:26;;;;;;;3.13;1.17;;;16.80;58.60;;;;;;5094425;28;20260;-62
2024/03/01 09:37:52;;;;;;;1.70;1.20;;;16.90;58.80;;;;;;5094363;28;20540;-62
2024/03/01 09:40:38;;;;;;;2.13;1.25;;;16.90;58.70;;;;;;5094671;28;20166;-62
2024/03/01 09:43:34;;;;;;;1.20;1.02;;;17.00;58.60;;;;;;5094717;28;20567;-61
2024/03/01 09:46:03;;;;;;;1.92;1.10;;;17.00;58.50;;;;;;5093766;28;20562;-61
2024/03/01 09:48:47;;;;;;;2.45;1.45;;;17.00;58.40;;;;;;5094339;28;20555;-60
2024/03/01 09:51:25;;;;;;;2.10;1.20;;;17.00;58.30;;;;;;5093462;28;20223;-60
2024/03/01 09:54:11;;;;;;;1.27;1.17;;;17.00;58.50;;;;;;5093796;28;20592;-61
2024/03/01 09:57:07;;;;;;;2.63;1.58;;;17.00;58.60;;;;;;5093359;28;20198;-61
2024/03/01 09:59:42;;;;;;;1.35;1.20;;;17.00;58.60;;;;;;5093830;28;20181;-61
2024/03/01 10:02:29;;;;;;;2.70;1.33;;;17.00;58.40;;;;;;5094234;28;20169;-61
2024/03/01 10:05:13;;;;;;;2.22;1.30;;;17.00;58.40;;;;;;5083966;28;20174;-60
2024/03/01 10:08:08;;;;;;;3.15;1.58;;;17.00;58.50;;;;;;5093280;28;20260;-61
2024/03/01 10:11:12;;;;;;;2.45;1.45;;;17.00;58.60;;;;;;5094149;28;20196;-62
2024/03/01 10:13:58;;;;;;;2.58;1.40;;;17.00;58.60;;;;;;5093732;28;20177;-62
2024/03/01 10:16:46;;;;;;;3.10;1.42;;;17.00;58.70;;;;;;5094014;28;20656;-63
2024/03/01 10:19:18;;;;;;;1.65;1.20;;;17.00;58.90;;;;;;5071525;28;20182;-62
2024/03/01 10:22:11;;;;;;;2.08;1.52;;;17.00;58.80;;;;;;5094284;28;20177;-62
2024/03/01 10:24:57;;;;;;;2.92;1.60;;;17.10;58.50;;;;;;5094049;28;20204;-61
2024/03/01 10:27:30;;;;;;;1.83;1.38;;;17.20;58.40;;;;;;5091649;28;20637;-61
2024/03/01 10:30:16;;;;;;;1.30;1.20;;;17.20;58.40;;;;;;5092980;28;20180;-61
2024/03/01 10:33:22;;;;;;;1.48;1.30;;;17.20;58.50;;;;;;5094004;28;20216;-61
2024/03/01 10:36:24;;;;;;;2.28;1.27;;;17.10;58.70;;;;;;5071080;28;20656;-61
2024/03/01 10:39:02;;;;;;;2.10;1.13;;;17.20;58.60;;;;;;5069404;28;20181;-62
2024/03/01 10:41:55;;;;;;;1.40;1.23;;;17.20;58.50;;;;;;5091481;28;20253;-61
2024/03/01 10:44:50;;;;;;;1.60;1.50;;;17.30;58.50;;;;;;5093292;28;20166;-60
2024/03/01 10:47:22;;;;;;;2.70;1.55;;;17.30;58.50;;;;;;5091656;28;20173;-61
2024/03/01 10:50:13;;;;;;;1.75;1.00;;;17.40;59.10;;;;;;5093495;28;20200;-61
2024/03/01 10:52:53;;;;;;;2.65;1.10;;;17.40;58.50;;;;;;5093490;28;20418;-61
2024/03/01 10:55:26;;;;;;;1.38;1.05;;;17.40;58.40;;;;;;5092452;28;20544;-63
2024/03/01 10:57:59;;;;;;;5.70;1.50;;;17.40;58.40;;;;;;5093078;28;20226;-62
2024/03/01 11:00:26;;;;;;;1.85;1.13;;;17.40;58.50;;;;;;5091795;28;20188;-61
2024/03/01 11:03:15;;;;;;;2.47;1.30;;;17.40;58.50;;;;;;5092500;28;20249;-62
2024/03/01 11:05:48;;;;;;;1.17;1.08;;;17.30;58.50;;;;;;5085482;28;20192;-61
2024/03/01 11:08:33;;;;;;;1.75;1.20;;;17.40;58.50;;;;;;5092934;28;20181;-62
2024/03/01 11:11:06;;;;;;;2.28;1.20;;;17.30;58.70;;;;;;5093095;28;20201;-62
2024/03/01 11:13:32;;;;;;;1.60;1.30;;;17.20;58.60;;;;;;5092931;28;20177;-62
2024/03/01 11:15:59;;;;;;;1.35;1.25;;;17.30;58.70;;;;;;5092246;28;20197;-62
2024/03/01 11:18:30;;;;;;;1.88;1.30;;;17.40;58.60;;;;;;5091275;28;20174;-62
2024/03/01 11:21:01;;;;;;;3.50;1.40;;;17.40;58.60;;;;;;5091784;28;20177;-62
2024/03/01 11:23:29;;;;;;;2.40;1.20;;;17.40;58.70;;;;;;5091874;28;20177;-62
2024/03/01 11:25:59;;;;;;;2.38;1.20;;;17.40;58.80;;;;;;5092832;28;20185;-61
2024/03/01 11:28:25;;;;;;;1.00;0.82;;;17.50;58.80;;;;;;5091446;28;20209;-61
2024/03/01 11:31:15;;;;;;;2.78;1.20;;;17.50;58.80;;;;;;5090766;28;20211;-61
2024/03/01 11:33:41;;;;;;;1.52;1.15;;;17.40;58.90;;;;;;5085046;28;20603;-61
2024/03/01 11:36:40;;;;;;;3.92;1.20;;;17.50;58.90;;;;;;5091376;28;20185;-61
2024/03/01 11:39:48;;;;;;;2.30;0.90;;;17.60;58.90;;;;;;5091373;28;20222;-62
2024/03/01 11:42:47;;;;;;;1.23;1.00;;;17.60;58.80;;;;;;5091115;28;20185;-61
2024/03/01 11:45:34;;;;;;;1.23;0.90;;;17.60;58.80;;;;;;5062058;28;20208;-61
2024/03/01 11:48:25;;;;;;;1.67;1.10;;;17.60;58.80;;;;;;5091258;28;21015;-60
2024/03/01 11:51:27;;;;;;;2.58;1.13;;;17.70;58.80;;;;;;5091564;28;20700;-60
2024/03/01 11:54:29;;;;;;;2.53;1.17;;;17.70;58.80;;;;;;5090848;28;20477;-62
2024/03/01 11:57:18;;;;;;;1.83;1.23;;;17.80;58.70;;;;;;5072468;28;20228;-62
2024/03/01 11:59:43;;;;;;;2.55;1.08;;;17.70;58.70;;;;;;5091893;28;20174;-61
2024/03/01 12:02:22;;;;;;;2.42;0.95;;;17.70;59.10;;;;;;5091892;28;20177;-62
2024/03/01 12:04:50;;;;;;;1.10;1.00;;;17.60;58.90;;;;;;5090477;28;20173;-62
2024/03/01 12:07:39;;;;;;;2.17;1.02;;;17.70;58.90;;;;;;5091659;28;20578;-62
2024/03/01 12:10:18;;;;;;;4.55;1.08;;;17.80;58.80;;;;;;5091364;28;20185;-62
2024/03/01 12:12:48;;;;;;;2.47;0.93;;;17.70;58.70;;;;;;5090305;28;20205;-62
2024/03/01 12:15:18;;;;;;;2.40;0.95;;;17.80;58.70;;;;;;5091699;28;20174;-62
2024/03/01 12:18:02;;;;;;;0.82;0.82;;;17.80;58.70;;;;;;5094116;28;20177;-62
2024/03/01 12:20:30;;;;;;;4.03;1.55;;;17.70;58.80;;;;;;5095107;28;20267;-62
2024/03/01 12:23:35;;;;;;;1.65;0.82;;;17.70;58.80;;;;;;5097465;28;20193;-62
2024/03/01 12:26:00;;;;;;;1.70;1.10;;;17.70;58.80;;;;;;5098012;28;20177;-62
2024/03/01 12:29:01;;;;;;;1.38;1.05;;;17.70;58.70;;;;;;5097142;28;20227;-61
2024/03/01 12:31:47;;;;;;;1.17;0.95;;;17.70;58.80;;;;;;5087601;28;20213;-61
2024/03/01 12:34:31;;;;;;;0.90;0.90;;;17.70;58.70;;;;;;5096855;28;20188;-62
2024/03/01 12:37:13;;;;;;;1.70;0.98;;;17.70;58.70;;;;;;5098827;28;20201;-63
2024/03/01 12:39:38;;;;;;;2.28;0.80;;;17.70;58.70;;;;;;5097721;28;20710;-63
2024/03/01 12:42:12;;;;;;;1.02;0.90;;;17.70;58.70;;;;;;5098049;28;20181;-62
2024/03/01 12:45:19;;;;;;;1.02;0.82;;;17.70;58.60;;;;;;5097683;28;20192;-65
2024/03/01 12:48:19;;;;;;;1.80;0.80;;;17.70;59.20;;;;;;5092837;28;20192;-62
2024/03/01 12:51:28;;;;;;;1.73;1.00;;;17.60;58.80;;;;;;5097316;28;20212;-61
2024/03/01 12:54:02;;;;;;;1.67;0.75;;;17.50;59.00;;;;;;5088795;28;20219;-62
2024/03/01 12:56:49;;;;;;;1.60;1.02;;;17.40;59.20;;;;;;5098025;28;20200;-64
2024/03/01 12:59:17;;;;;;;2.58;0.70;;;17.30;59.20;;;;;;5097051;28;20183;-62
2024/03/01 13:02:12;;;;;;;1.92;0.88;;;17.30;59.30;;;;;;5097670;28;20174;-62
2024/03/01 13:05:16;;;;;;;1.30;1.00;;;17.20;59.30;;;;;;5097320;28;20290;-62
2024/03/01 13:07:41;;;;;;;2.15;0.90;;;17.30;59.40;;;;;;5066726;28;20211;-62